Terminal Aerodrome Forecast
Issued by NWS Twin Cities, MN

Home | Current Version | Previous Version | Graphics & Text | Print | Product List | Glossary On
Versions: 1 2 3 4 5 6 7 8 9 10 11 12 13 14 15 16 17 18 19 20 21 22 23 24 25 26 27 28 29
113
FTUS43 KMPX 241504 AAA
TAFMSP
TAF AMD
KMSP 241504Z 2415/2518 13012KT 5SM BR OVC007
     FM241800 13013KT P6SM OVC013
     FM250400 13013KT 4SM TSRA BR OVC009CB
      TEMPO 2504/2507 1SM +TSRA BR OVC005CB
     FM250800 16009KT 6SM -SHRA BR OVC015
     FM251200 22007KT P6SM BKN025 BKN050=

USA.gov is the U.S. government's official web portal to all federal, state and local government web resources and services.